Time;durP1;ratioP1;P1;durP2;ratioP2;P2;SDS_P1;SDS_P2;PMS_P1;PMS_P2;Temp;Humidity;BMP_temperature;BMP_pressure;BME280_temperature;BME280_humidity;BME280_pressure;Samples;Min_cycle;Max_cycle;Signal;HPM_P1;HPM_P2
2022/02/18 00:00:23;;;;;;;21.42;3.13;;;10.10;95.90;;;;;;5038920;28;20053;-55
2022/02/18 00:02:49;;;;;;;7.03;1.67;;;10.10;95.80;;;;;;5037900;28;20067;-54
2022/02/18 00:05:15;;;;;;;9.70;2.42;;;10.10;95.80;;;;;;5037232;28;20473;-55
2022/02/18 00:07:40;;;;;;;12.70;1.70;;;10.10;96.00;;;;;;5034510;28;20037;-55
2022/02/18 00:10:07;;;;;;;14.55;2.53;;;10.10;95.90;;;;;;5028748;28;20037;-55
2022/02/18 00:12:32;;;;;;;11.45;1.33;;;10.10;96.00;;;;;;5040504;28;20032;-55
2022/02/18 00:14:59;;;;;;;21.77;1.77;;;10.10;95.90;;;;;;5039950;28;20031;-54
2022/02/18 00:17:24;;;;;;;12.30;2.05;;;10.10;95.90;;;;;;5039100;28;20018;-55
2022/02/18 00:19:50;;;;;;;15.77;2.47;;;10.10;95.80;;;;;;5034915;28;20079;-55
2022/02/18 00:22:16;;;;;;;9.27;2.17;;;10.10;95.90;;;;;;5035205;28;20025;-55
2022/02/18 00:24:41;;;;;;;11.45;1.75;;;10.10;95.90;;;;;;5034925;28;20048;-55
2022/02/18 00:27:07;;;;;;;14.55;2.15;;;10.10;95.80;;;;;;5039757;28;20053;-55
2022/02/18 00:29:33;;;;;;;16.17;1.92;;;10.10;95.90;;;;;;5037159;28;20466;-55
2022/02/18 00:31:58;;;;;;;11.43;2.00;;;10.10;95.80;;;;;;5034671;28;20051;-55
2022/02/18 00:34:24;;;;;;;10.77;2.22;;;10.10;95.80;;;;;;5040241;28;20095;-55
2022/02/18 00:36:49;;;;;;;13.75;2.25;;;10.10;95.90;;;;;;5038561;28;20097;-55
2022/02/18 00:39:15;;;;;;;20.92;3.10;;;10.10;95.90;;;;;;5036549;28;20064;-55
2022/02/18 00:41:41;;;;;;;8.05;1.65;;;10.10;95.90;;;;;;5031015;28;20083;-55
2022/02/18 00:44:07;;;;;;;22.10;3.80;;;10.10;95.90;;;;;;5037444;28;20037;-55
2022/02/18 00:46:33;;;;;;;13.82;2.05;;;10.10;95.90;;;;;;5039553;28;20086;-55
2022/02/18 00:48:59;;;;;;;12.38;2.58;;;10.10;95.80;;;;;;5039347;28;20025;-55
2022/02/18 00:51:25;;;;;;;13.07;1.50;;;10.10;95.90;;;;;;5030493;28;20048;-55
2022/02/18 00:53:50;;;;;;;22.10;3.00;;;10.10;95.90;;;;;;5044041;28;20104;-55
2022/02/18 00:56:16;;;;;;;7.40;1.63;;;10.10;95.90;;;;;;5034134;28;20061;-54
2022/02/18 00:58:42;;;;;;;10.38;2.00;;;10.10;95.90;;;;;;5044866;28;20049;-55
2022/02/18 01:01:08;;;;;;;11.98;1.70;;;10.10;96.00;;;;;;5039465;28;20519;-55
2022/02/18 01:03:34;;;;;;;13.38;1.77;;;10.10;95.90;;;;;;5031235;28;20036;-55
2022/02/18 01:06:00;;;;;;;7.90;1.77;;;10.00;95.90;;;;;;5040987;28;20035;-55
2022/02/18 01:08:26;;;;;;;9.18;1.73;;;10.00;96.00;;;;;;5044133;28;20107;-55
2022/02/18 01:10:52;;;;;;;8.00;1.77;;;10.00;95.80;;;;;;5033508;28;20041;-55
2022/02/18 01:13:18;;;;;;;9.05;1.40;;;10.00;95.90;;;;;;5041724;28;20108;-54
2022/02/18 01:15:44;;;;;;;6.82;1.67;;;10.00;96.00;;;;;;5041853;28;20060;-54
2022/02/18 01:18:09;;;;;;;5.38;1.50;;;10.00;96.00;;;;;;5038623;28;20036;-54
2022/02/18 01:20:35;;;;;;;16.23;1.67;;;10.10;95.90;;;;;;5038815;28;20120;-54
2022/02/18 01:23:01;;;;;;;14.07;2.17;;;10.00;96.00;;;;;;5037731;28;20040;-55
2022/02/18 01:25:26;;;;;;;9.13;2.15;;;10.00;96.00;;;;;;5039847;28;20056;-55
2022/02/18 01:27:55;;;;;;;6.85;1.90;;;10.00;96.00;;;;;;5039552;28;20021;-55
2022/02/18 01:30:23;;;;;;;7.90;1.50;;;10.10;96.10;;;;;;5035774;28;20032;-55
2022/02/18 01:32:50;;;;;;;3.20;1.38;;;10.00;96.00;;;;;;5034686;28;20072;-55
2022/02/18 01:35:17;;;;;;;12.00;1.90;;;10.00;96.00;;;;;;5044084;28;20029;-55
2022/02/18 01:37:44;;;;;;;5.78;2.70;;;10.00;96.00;;;;;;5042992;28;20097;-54
2022/02/18 01:40:10;;;;;;;9.20;2.17;;;10.00;95.90;;;;;;5038305;28;20037;-54
2022/02/18 01:42:36;;;;;;;5.88;1.90;;;10.00;95.90;;;;;;5032083;28;20459;-54
2022/02/18 01:45:01;;;;;;;15.65;1.60;;;10.00;95.90;;;;;;5043149;28;20064;-54
2022/02/18 01:47:27;;;;;;;8.13;2.22;;;10.00;95.90;;;;;;5041718;28;20474;-55
2022/02/18 01:49:54;;;;;;;12.07;1.90;;;10.00;96.00;;;;;;5042956;28;20332;-55
2022/02/18 01:52:24;;;;;;;12.68;2.20;;;10.00;96.00;;;;;;5030828;28;20029;-55
2022/02/18 01:54:50;;;;;;;3.72;1.88;;;10.10;96.00;;;;;;5038781;28;20135;-54
2022/02/18 01:57:16;;;;;;;15.73;1.77;;;10.10;95.90;;;;;;5038259;28;20125;-55
2022/02/18 01:59:42;;;;;;;13.75;2.03;;;10.10;96.10;;;;;;5040312;28;20104;-55
2022/02/18 02:02:07;;;;;;;12.68;2.00;;;10.10;96.00;;;;;;5034447;28;20069;-54
2022/02/18 02:04:33;;;;;;;13.85;1.88;;;10.00;96.00;;;;;;5031297;28;20057;-55
2022/02/18 02:07:05;;;;;;;7.07;2.83;;;10.00;96.00;;;;;;5043573;28;20041;-54
2022/02/18 02:09:30;;;;;;;6.85;2.20;;;10.00;96.40;;;;;;5043828;28;20411;-55
2022/02/18 02:11:56;;;;;;;8.07;1.63;;;10.00;96.00;;;;;;5032394;28;20067;-55
2022/02/18 02:14:22;;;;;;;13.60;1.88;;;10.00;96.30;;;;;;5034456;28;20363;-54
2022/02/18 02:16:47;;;;;;;6.65;2.13;;;10.00;96.00;;;;;;5039196;28;20029;-54
2022/02/18 02:19:13;;;;;;;7.95;1.77;;;10.00;96.20;;;;;;5041048;28;20029;-54
2022/02/18 02:21:54;;;;;;;5.25;1.33;;;10.00;96.00;;;;;;5040760;28;20184;-55
2022/02/18 02:24:20;;;;;;;8.93;1.73;;;10.00;96.00;;;;;;5030937;28;20052;-54
2022/02/18 02:26:45;;;;;;;7.10;1.75;;;10.00;95.90;;;;;;5038384;28;20061;-54
2022/02/18 02:29:12;;;;;;;7.07;1.38;;;10.00;96.10;;;;;;5042865;28;20021;-55
2022/02/18 02:31:38;;;;;;;1.55;1.10;;;10.00;96.10;;;;;;5041635;28;20129;-55
2022/02/18 02:34:04;;;;;;;11.98;2.20;;;10.00;96.10;;;;;;5036836;28;20116;-55
2022/02/18 02:36:30;;;;;;;4.80;1.52;;;10.00;96.10;;;;;;5033280;28;20124;-55
2022/02/18 02:38:56;;;;;;;2.08;0.90;;;10.00;96.10;;;;;;5040865;28;20494;-55
2022/02/18 02:41:22;;;;;;;4.30;1.48;;;10.00;96.10;;;;;;5031449;28;20036;-54
2022/02/18 02:43:48;;;;;;;10.38;1.13;;;10.00;96.10;;;;;;5042344;28;20021;-55
2022/02/18 02:46:14;;;;;;;5.15;0.50;;;10.00;96.10;;;;;;5033127;28;20036;-54
2022/02/18 02:48:40;;;;;;;10.25;1.75;;;10.00;96.10;;;;;;5037342;28;20029;-55
2022/02/18 02:51:06;;;;;;;15.10;1.77;;;10.00;96.40;;;;;;5037513;28;20143;-54
2022/02/18 02:53:32;;;;;;;5.07;1.25;;;10.00;96.20;;;;;;5036448;28;20112;-55
2022/02/18 02:55:58;;;;;;;3.60;1.20;;;10.00;96.10;;;;;;5033595;28;20028;-55
2022/02/18 02:58:24;;;;;;;4.25;1.25;;;10.00;96.20;;;;;;5042275;28;20029;-55
2022/02/18 03:00:51;;;;;;;13.18;1.60;;;10.00;96.00;;;;;;5033876;28;20025;-55
2022/02/18 03:03:17;;;;;;;14.77;2.30;;;10.00;96.20;;;;;;5041426;28;20027;-55
2022/02/18 03:05:43;;;;;;;8.68;1.63;;;10.00;96.10;;;;;;5031112;28;20083;-55
2022/02/18 03:08:09;;;;;;;13.90;1.90;;;10.00;96.10;;;;;;5036974;28;20030;-55
2022/02/18 03:10:34;;;;;;;12.30;2.08;;;10.00;96.00;;;;;;5038341;28;20038;-54
2022/02/18 03:13:01;;;;;;;7.40;1.38;;;10.00;96.20;;;;;;5037776;28;20017;-55
2022/02/18 03:15:27;;;;;;;8.30;1.58;;;10.00;96.20;;;;;;5039128;28;20079;-55
2022/02/18 03:17:52;;;;;;;12.73;2.20;;;10.00;96.20;;;;;;5031169;28;20025;-55
2022/02/18 03:20:18;;;;;;;9.63;1.85;;;10.00;96.20;;;;;;5035513;28;20029;-55
2022/02/18 03:22:44;;;;;;;10.70;1.50;;;10.00;96.30;;;;;;5039038;28;20032;-55
2022/02/18 03:25:10;;;;;;;11.18;1.55;;;10.00;96.30;;;;;;5036413;28;20030;-55
2022/02/18 03:27:38;;;;;;;6.88;1.40;;;10.00;96.20;;;;;;5029986;28;20029;-55
2022/02/18 03:30:07;;;;;;;11.98;2.42;;;10.00;96.10;;;;;;5038352;28;20391;-55
2022/02/18 03:32:33;;;;;;;8.60;1.73;;;10.00;96.30;;;;;;5039319;28;20615;-54
2022/02/18 03:34:59;;;;;;;6.80;1.55;;;10.00;96.10;;;;;;5041735;28;20017;-54
2022/02/18 03:37:24;;;;;;;6.30;1.35;;;10.00;96.10;;;;;;5037646;28;20033;-55
2022/02/18 03:39:50;;;;;;;9.27;2.33;;;10.00;96.10;;;;;;5037993;28;20024;-55
2022/02/18 03:42:15;;;;;;;7.90;1.58;;;10.00;96.10;;;;;;5032877;28;20366;-55
2022/02/18 03:44:41;;;;;;;10.45;1.48;;;10.00;96.40;;;;;;5037731;28;20128;-55
2022/02/18 03:47:07;;;;;;;4.65;1.50;;;10.00;96.20;;;;;;5041325;28;20032;-55
2022/02/18 03:49:33;;;;;;;12.35;1.65;;;10.00;96.10;;;;;;5032768;28;20071;-55
2022/02/18 03:51:58;;;;;;;5.35;1.30;;;10.00;96.30;;;;;;5038306;28;20037;-55
2022/02/18 03:54:25;;;;;;;7.60;1.75;;;10.00;96.40;;;;;;5039397;28;20029;-54
2022/02/18 03:56:51;;;;;;;6.55;2.05;;;10.00;96.20;;;;;;5025792;28;20112;-55
2022/02/18 03:59:17;;;;;;;5.85;1.40;;;10.10;96.20;;;;;;5036494;28;20109;-54
2022/02/18 04:01:42;;;;;;;5.90;1.42;;;10.00;96.30;;;;;;5040474;28;20029;-55
2022/02/18 04:04:08;;;;;;;6.07;1.70;;;10.00;96.10;;;;;;5035565;28;20161;-55
2022/02/18 04:06:34;;;;;;;13.18;1.65;;;10.10;96.30;;;;;;5036618;28;20579;-55
2022/02/18 04:09:00;;;;;;;8.80;1.50;;;10.10;96.40;;;;;;5037321;28;20315;-54
2022/02/18 04:11:25;;;;;;;3.78;1.38;;;10.10;96.30;;;;;;5029386;28;20046;-55
2022/02/18 04:13:51;;;;;;;8.27;2.33;;;10.00;96.30;;;;;;5036738;28;20060;-55
2022/02/18 04:16:16;;;;;;;11.05;1.65;;;10.00;96.40;;;;;;5041446;28;20025;-55
2022/02/18 04:18:42;;;;;;;17.05;1.98;;;10.00;96.40;;;;;;5040267;28;20021;-55
2022/02/18 04:21:08;;;;;;;6.53;1.52;;;10.10;96.40;;;;;;5037223;28;20029;-55
2022/02/18 04:23:33;;;;;;;13.02;1.95;;;10.10;96.30;;;;;;5038013;28;20032;-55
2022/02/18 04:25:59;;;;;;;6.22;1.67;;;10.10;96.30;;;;;;5039786;28;20034;-54
2022/02/18 04:28:24;;;;;;;6.05;2.15;;;10.10;96.30;;;;;;5033042;28;20021;-55
2022/02/18 04:30:50;;;;;;;9.95;2.33;;;10.10;96.40;;;;;;5042893;28;20490;-54
2022/02/18 04:33:16;;;;;;;9.07;1.67;;;10.10;96.40;;;;;;5035977;28;20021;-54
2022/02/18 04:35:42;;;;;;;8.82;1.52;;;10.10;96.30;;;;;;5036866;28;20116;-55
2022/02/18 04:38:08;;;;;;;5.97;1.52;;;10.10;96.30;;;;;;5042161;28;20048;-55
2022/02/18 04:40:34;;;;;;;15.98;2.38;;;10.10;96.30;;;;;;5037134;28;20451;-55
2022/02/18 04:43:00;;;;;;;13.95;2.53;;;10.10;96.70;;;;;;5034711;28;20036;-55
2022/02/18 04:45:25;;;;;;;12.20;1.67;;;10.10;96.40;;;;;;5044984;28;20439;-55
2022/02/18 04:47:51;;;;;;;12.25;2.47;;;10.10;96.40;;;;;;5042564;28;20050;-55
2022/02/18 04:50:16;;;;;;;12.63;1.13;;;10.10;96.40;;;;;;5041455;28;20042;-55
2022/02/18 04:52:42;;;;;;;3.28;1.23;;;10.10;96.40;;;;;;5036253;28;20491;-55
2022/02/18 04:55:08;;;;;;;11.00;1.70;;;10.10;96.30;;;;;;5043847;28;20071;-54
2022/02/18 04:57:37;;;;;;;8.70;1.52;;;10.10;96.40;;;;;;5030372;28;20029;-54
2022/02/18 05:00:07;;;;;;;10.45;2.08;;;10.10;96.40;;;;;;5039725;28;20033;-55
2022/02/18 05:02:32;;;;;;;9.55;1.67;;;10.10;96.40;;;;;;5038882;28;20036;-54
2022/02/18 05:04:59;;;;;;;15.32;1.75;;;10.10;96.40;;;;;;5040513;28;20025;-55
2022/02/18 05:07:25;;;;;;;12.73;1.58;;;10.10;96.50;;;;;;5043056;28;20044;-55
2022/02/18 05:09:50;;;;;;;11.73;1.40;;;10.10;96.40;;;;;;5041396;28;20116;-54
2022/02/18 05:12:17;;;;;;;9.35;1.10;;;10.10;96.40;;;;;;5038643;28;20033;-55
2022/02/18 05:14:42;;;;;;;8.10;1.58;;;10.10;96.40;;;;;;5039664;28;20021;-54
2022/02/18 05:17:08;;;;;;;12.55;1.90;;;10.10;96.50;;;;;;5040769;28;20080;-55
2022/02/18 05:19:34;;;;;;;12.43;2.00;;;10.10;96.50;;;;;;5042261;28;20080;-54
2022/02/18 05:21:59;;;;;;;11.50;1.50;;;10.10;96.40;;;;;;5037001;28;20044;-55
2022/02/18 05:24:25;;;;;;;7.85;1.88;;;10.10;96.40;;;;;;5038320;28;20061;-54
2022/02/18 05:26:50;;;;;;;12.25;1.52;;;10.10;96.50;;;;;;5042121;28;20393;-54
2022/02/18 05:29:16;;;;;;;9.35;2.20;;;10.10;96.40;;;;;;5037608;28;20041;-55
2022/02/18 05:31:42;;;;;;;5.57;1.60;;;10.10;96.50;;;;;;5040676;28;20041;-55
2022/02/18 05:34:07;;;;;;;2.40;1.30;;;10.10;96.50;;;;;;5041974;28;20348;-54
2022/02/18 05:36:33;;;;;;;5.80;1.88;;;10.10;96.50;;;;;;5039623;28;20021;-56
2022/02/18 05:38:58;;;;;;;8.30;1.73;;;10.10;96.50;;;;;;5036969;28;20029;-55
2022/02/18 05:41:24;;;;;;;11.30;2.25;;;10.10;96.60;;;;;;5042751;28;20025;-56
2022/02/18 05:43:50;;;;;;;8.60;1.27;;;10.10;96.50;;;;;;5039295;28;20378;-55
2022/02/18 05:46:16;;;;;;;6.53;1.58;;;10.10;96.50;;;;;;5038850;28;20048;-55
2022/02/18 05:48:41;;;;;;;8.38;1.50;;;10.10;96.40;;;;;;5039231;28;20026;-55
2022/02/18 05:51:07;;;;;;;10.98;1.52;;;10.10;96.50;;;;;;5041075;28;20806;-55
2022/02/18 05:53:33;;;;;;;10.30;2.45;;;10.10;96.50;;;;;;5039785;28;20041;-55
2022/02/18 05:55:59;;;;;;;10.30;1.85;;;10.10;96.50;;;;;;5033643;28;20071;-55
2022/02/18 05:58:25;;;;;;;5.60;0.95;;;10.10;96.50;;;;;;5031038;28;20414;-55
2022/02/18 06:00:50;;;;;;;8.38;1.55;;;10.10;96.50;;;;;;5036256;28;20037;-55
2022/02/18 06:03:16;;;;;;;7.95;1.42;;;10.10;96.50;;;;;;5040140;28;20033;-55
2022/02/18 06:05:42;;;;;;;11.02;3.08;;;10.10;96.50;;;;;;5034160;28;20032;-55
2022/02/18 06:08:10;;;;;;;8.80;1.58;;;10.10;96.60;;;;;;5036063;28;20028;-70
2022/02/18 06:10:36;;;;;;;8.00;1.83;;;10.10;96.50;;;;;;5035127;28;20042;-58
2022/02/18 06:13:02;;;;;;;10.40;2.40;;;10.00;96.40;;;;;;5029977;28;20037;-56
2022/02/18 06:15:27;;;;;;;6.80;1.88;;;10.00;96.40;;;;;;5036665;28;20017;-56
2022/02/18 06:17:53;;;;;;;6.63;1.50;;;10.00;96.40;;;;;;5031825;28;20021;-56
2022/02/18 06:20:18;;;;;;;11.23;2.00;;;10.00;96.30;;;;;;5039935;28;20060;-56
2022/02/18 06:22:45;;;;;;;3.85;1.48;;;10.00;96.20;;;;;;5036674;28;20040;-56
2022/02/18 06:25:11;;;;;;;15.63;2.00;;;10.10;96.10;;;;;;5039063;28;20029;-56
2022/02/18 06:27:36;;;;;;;24.20;2.30;;;10.10;96.10;;;;;;5035638;28;20263;-56
2022/02/18 06:30:02;;;;;;;8.43;1.52;;;10.10;96.20;;;;;;5036541;28;20044;-56
2022/02/18 06:32:28;;;;;;;8.38;1.85;;;10.10;96.30;;;;;;5033151;28;20049;-56
2022/02/18 06:34:54;;;;;;;3.30;1.27;;;10.10;96.10;;;;;;5041100;28;20060;-56
2022/02/18 06:37:20;;;;;;;6.28;1.35;;;10.10;96.10;;;;;;5040829;28;20030;-56
2022/02/18 06:39:46;;;;;;;4.05;2.00;;;10.10;96.10;;;;;;5038415;28;20418;-56
2022/02/18 06:42:11;;;;;;;14.05;2.17;;;10.10;96.20;;;;;;5034855;28;20021;-56
2022/02/18 06:44:37;;;;;;;18.88;1.63;;;10.10;96.10;;;;;;5034867;28;20120;-56
2022/02/18 06:47:03;;;;;;;7.70;1.55;;;10.10;96.20;;;;;;5039344;28;20022;-56
2022/02/18 06:49:29;;;;;;;5.10;1.25;;;10.10;96.30;;;;;;5034242;28;20288;-56
2022/02/18 06:51:55;;;;;;;14.27;2.33;;;10.10;96.20;;;;;;5033644;28;20419;-56
2022/02/18 06:54:25;;;;;;;5.20;1.42;;;10.10;96.20;;;;;;5039638;28;20033;-56
2022/02/18 06:56:51;;;;;;;15.77;2.83;;;10.10;96.20;;;;;;5037407;28;20038;-56
2022/02/18 06:59:18;;;;;;;11.40;1.83;;;10.10;96.20;;;;;;5034844;28;20033;-56
2022/02/18 07:01:43;;;;;;;7.30;1.35;;;10.10;96.30;;;;;;5028481;28;20261;-56
2022/02/18 07:04:09;;;;;;;9.23;1.90;;;10.10;96.30;;;;;;5039847;28;20021;-56
2022/02/18 07:06:35;;;;;;;11.50;1.40;;;10.10;96.30;;;;;;5037695;28;20391;-56
2022/02/18 07:09:01;;;;;;;2.75;1.52;;;10.10;96.30;;;;;;5036187;28;20032;-56
2022/02/18 07:11:26;;;;;;;11.20;2.03;;;10.10;96.40;;;;;;5033445;28;20930;-57
2022/02/18 07:13:52;;;;;;;8.88;1.80;;;10.10;96.30;;;;;;5038262;28;20305;-56
2022/02/18 07:16:18;;;;;;;4.65;1.60;;;10.10;96.30;;;;;;5035142;28;20040;-56
2022/02/18 07:18:43;;;;;;;8.68;1.70;;;10.10;96.40;;;;;;5036772;28;20025;-57
2022/02/18 07:21:10;;;;;;;6.00;1.27;;;10.10;96.40;;;;;;5036055;28;20025;-56
2022/02/18 07:23:36;;;;;;;9.35;1.80;;;10.10;96.30;;;;;;5031881;28;20025;-57
2022/02/18 07:26:02;;;;;;;11.68;1.52;;;10.10;96.50;;;;;;5030110;28;20041;-56
2022/02/18 07:28:27;;;;;;;7.35;2.20;;;10.10;96.40;;;;;;5020864;28;20028;-56
2022/02/18 07:30:53;;;;;;;4.15;1.25;;;10.10;96.40;;;;;;5038553;28;20086;-56
2022/02/18 07:33:19;;;;;;;6.63;1.33;;;10.10;96.40;;;;;;5038328;28;20072;-56
2022/02/18 07:35:44;;;;;;;15.23;1.88;;;10.10;96.40;;;;;;5030697;28;20474;-57
2022/02/18 07:38:11;;;;;;;8.05;2.38;;;10.10;96.40;;;;;;5036072;28;20024;-56
2022/02/18 07:40:37;;;;;;;4.32;1.38;;;10.10;96.40;;;;;;5028525;28;20457;-56
2022/02/18 07:43:03;;;;;;;6.47;2.15;;;10.10;96.40;;;;;;5029456;28;20030;-56
2022/02/18 07:45:28;;;;;;;11.80;1.92;;;10.10;96.50;;;;;;5038178;28;20104;-56
2022/02/18 07:47:55;;;;;;;5.20;1.83;;;10.10;96.50;;;;;;5044464;28;20025;-56
2022/02/18 07:50:22;;;;;;;10.77;1.67;;;10.10;96.50;;;;;;5040445;28;20029;-56
2022/02/18 07:52:48;;;;;;;4.10;1.95;;;10.10;96.50;;;;;;5032344;28;20021;-56
2022/02/18 07:55:14;;;;;;;8.20;2.15;;;10.10;96.50;;;;;;5039876;28;20431;-57
2022/02/18 07:57:40;;;;;;;7.88;1.80;;;10.10;96.50;;;;;;5032185;28;20459;-56
2022/02/18 08:00:06;;;;;;;11.38;1.83;;;10.10;96.40;;;;;;5035905;28;20039;-56
2022/02/18 08:02:32;;;;;;;4.28;1.15;;;10.10;96.50;;;;;;5044114;28;20025;-56
2022/02/18 08:04:57;;;;;;;5.70;1.55;;;10.10;96.40;;;;;;5038691;28;20040;-57
2022/02/18 08:07:23;;;;;;;10.00;1.83;;;10.10;96.70;;;;;;5041795;28;20021;-56
2022/02/18 08:09:49;;;;;;;11.00;1.65;;;10.10;96.60;;;;;;5039950;28;20029;-56
2022/02/18 08:12:14;;;;;;;9.98;1.80;;;10.10;96.60;;;;;;5038782;28;20064;-56
2022/02/18 08:14:40;;;;;;;5.57;1.45;;;10.10;96.70;;;;;;5037962;28;20036;-56
2022/02/18 08:17:06;;;;;;;7.85;1.27;;;10.10;96.70;;;;;;5039049;28;20033;-56
2022/02/18 08:19:31;;;;;;;7.68;1.50;;;10.10;96.60;;;;;;5040033;28;20032;-56
2022/02/18 08:21:57;;;;;;;4.03;1.25;;;10.20;96.80;;;;;;5030123;28;20592;-56
2022/02/18 08:24:23;;;;;;;7.93;1.63;;;10.20;96.80;;;;;;5038895;28;20029;-57
2022/02/18 08:26:51;;;;;;;10.60;2.35;;;10.20;96.70;;;;;;5038360;28;20356;-56
2022/02/18 08:29:17;;;;;;;7.47;1.38;;;10.20;96.80;;;;;;5037961;28;20473;-56
2022/02/18 08:31:43;;;;;;;8.63;1.63;;;10.20;96.60;;;;;;5043632;28;20037;-57
2022/02/18 08:34:09;;;;;;;5.57;1.45;;;10.10;97.10;;;;;;5041542;28;20048;-56
2022/02/18 08:36:35;;;;;;;3.05;1.33;;;10.10;96.70;;;;;;5042530;28;20029;-56
2022/02/18 08:39:05;;;;;;;9.32;2.17;;;10.10;96.80;;;;;;5042230;28;20050;-56
2022/02/18 08:41:35;;;;;;;4.32;0.95;;;10.10;96.90;;;;;;5042276;28;20033;-56
2022/02/18 08:44:00;;;;;;;23.25;0.93;;;10.10;96.80;;;;;;5039412;28;20038;-56
2022/02/18 08:46:27;;;;;;;9.50;1.95;;;10.10;96.90;;;;;;5036523;28;20048;-56
2022/02/18 08:48:53;;;;;;;4.38;1.25;;;10.20;97.00;;;;;;5039253;28;20087;-57
2022/02/18 08:51:18;;;;;;;3.53;1.02;;;10.10;96.80;;;;;;5044036;28;20285;-56
2022/02/18 08:53:44;;;;;;;6.38;1.23;;;10.10;96.90;;;;;;5038390;28;20021;-57
2022/02/18 08:56:10;;;;;;;9.20;1.15;;;10.10;97.00;;;;;;5040590;28;20123;-56
2022/02/18 08:58:35;;;;;;;8.85;1.65;;;10.20;97.10;;;;;;5036122;28;20029;-56
2022/02/18 09:01:01;;;;;;;4.93;1.10;;;10.20;97.20;;;;;;5035142;28;20057;-55
2022/02/18 09:03:27;;;;;;;2.35;1.17;;;10.20;97.10;;;;;;5043324;28;20029;-56
2022/02/18 09:05:52;;;;;;;9.20;1.60;;;10.20;96.90;;;;;;5039169;28;20393;-56
2022/02/18 09:08:21;;;;;;;6.88;1.35;;;10.20;97.10;;;;;;5039735;28;20342;-55
2022/02/18 09:10:49;;;;;;;3.70;0.73;;;10.20;97.00;;;;;;5042361;28;20112;-56
2022/02/18 09:13:15;;;;;;;7.68;0.98;;;10.20;97.10;;;;;;5035845;28;20115;-56
2022/02/18 09:15:41;;;;;;;7.60;1.70;;;10.20;97.00;;;;;;5038493;28;20111;-56
2022/02/18 09:18:07;;;;;;;6.15;1.08;;;10.20;97.00;;;;;;5041865;28;20324;-55
2022/02/18 09:20:33;;;;;;;10.73;1.58;;;10.20;97.00;;;;;;5039752;28;20024;-56
2022/02/18 09:22:59;;;;;;;2.53;0.70;;;10.20;97.00;;;;;;5039959;28;20022;-55
2022/02/18 09:25:25;;;;;;;4.72;0.85;;;10.20;97.00;;;;;;5041175;28;20444;-56
2022/02/18 09:27:51;;;;;;;11.18;1.10;;;10.30;97.20;;;;;;5042939;28;20063;-55
2022/02/18 09:30:16;;;;;;;6.35;1.27;;;10.20;97.10;;;;;;5035287;28;20428;-55
2022/02/18 09:32:42;;;;;;;3.72;0.30;;;10.30;97.10;;;;;;5035905;28;20072;-55
2022/02/18 09:35:08;;;;;;;1.00;0.50;;;10.30;97.20;;;;;;5044708;28;20025;-55
2022/02/18 09:37:34;;;;;;;1.25;0.63;;;10.30;97.30;;;;;;5041425;28;20463;-55
2022/02/18 09:40:00;;;;;;;0.60;0.60;;;10.30;97.20;;;;;;5040852;28;20116;-55
2022/02/18 09:42:27;;;;;;;0.73;0.60;;;10.30;97.30;;;;;;5038369;28;21480;-55
2022/02/18 09:44:54;;;;;;;4.38;1.48;;;10.30;97.10;;;;;;5033004;28;20018;-55
2022/02/18 09:47:19;;;;;;;0.75;0.68;;;10.30;97.20;;;;;;5041987;28;20033;-55
2022/02/18 09:49:45;;;;;;;5.50;1.35;;;10.30;97.20;;;;;;5043427;28;20022;-55
2022/02/18 09:52:13;;;;;;;0.75;0.65;;;10.30;97.30;;;;;;5037290;28;20044;-55
2022/02/18 09:54:39;;;;;;;4.82;0.60;;;10.30;97.30;;;;;;5040667;28;20040;-55
2022/02/18 09:57:04;;;;;;;1.58;0.52;;;10.30;97.10;;;;;;5041379;28;20021;-55
2022/02/18 09:59:32;;;;;;;3.78;0.73;;;10.40;97.10;;;;;;5037226;28;20042;-55
2022/02/18 10:01:58;;;;;;;6.75;0.70;;;10.30;97.40;;;;;;5036315;28;20413;-55
2022/02/18 10:04:24;;;;;;;0.57;0.43;;;10.30;97.20;;;;;;5039459;28;20116;-56
2022/02/18 10:06:49;;;;;;;2.88;0.95;;;10.40;97.20;;;;;;5039521;28;20376;-56
2022/02/18 10:09:15;;;;;;;3.80;1.05;;;10.30;97.20;;;;;;5043770;28;20036;-55
2022/02/18 10:11:58;;;;;;;6.22;1.17;;;10.40;97.40;;;;;;5036201;28;20045;-56
2022/02/18 10:14:23;;;;;;;3.65;1.02;;;10.40;97.60;;;;;;5036296;28;20405;-55
2022/02/18 10:16:49;;;;;;;2.00;1.70;;;10.40;97.20;;;;;;5039332;28;20029;-55
2022/02/18 10:19:15;;;;;;;0.45;0.45;;;10.40;97.40;;;;;;5043236;28;20017;-56
2022/02/18 10:21:42;;;;;;;1.02;0.68;;;10.40;97.50;;;;;;5029918;28;20041;-55
2022/02/18 10:24:16;;;;;;;7.60;1.23;;;10.40;97.30;;;;;;5026796;28;20025;-55
2022/02/18 10:26:44;;;;;;;4.43;1.35;;;10.40;97.40;;;;;;5028958;28;20035;-56
2022/02/18 10:29:17;;;;;;;7.18;1.48;;;10.40;97.50;;;;;;5025379;28;20415;-56
2022/02/18 10:31:43;;;;;;;5.63;1.48;;;10.40;97.60;;;;;;5022085;28;20037;-56
2022/02/18 10:34:10;;;;;;;3.10;1.10;;;10.40;97.60;;;;;;5037797;28;20084;-56
2022/02/18 10:36:41;;;;;;;5.57;1.05;;;10.40;97.40;;;;;;5039405;28;20603;-56
2022/02/18 10:39:30;;;;;;;0.50;0.43;;;10.40;97.50;;;;;;5036473;28;20018;-56
2022/02/18 10:41:59;;;;;;;15.80;0.88;;;10.50;97.50;;;;;;5037490;28;20031;-56
2022/02/18 10:44:29;;;;;;;1.38;0.60;;;10.40;97.70;;;;;;5039663;28;20031;-56
2022/02/18 10:46:55;;;;;;;5.75;1.05;;;10.50;97.40;;;;;;5031252;28;20075;-56
2022/02/18 10:49:23;;;;;;;3.35;1.02;;;10.50;97.60;;;;;;5039186;28;20095;-56
2022/02/18 10:51:50;;;;;;;3.13;1.27;;;10.50;97.70;;;;;;5031185;28;20056;-56
2022/02/18 10:54:17;;;;;;;7.55;0.63;;;10.40;97.50;;;;;;5030029;28;20109;-56
2022/02/18 10:56:43;;;;;;;0.77;0.77;;;10.50;98.10;;;;;;5029676;28;20029;-56
2022/02/18 10:59:08;;;;;;;2.00;0.93;;;10.50;97.50;;;;;;5027878;28;20028;-56
2022/02/18 11:01:43;;;;;;;2.00;0.90;;;10.50;97.80;;;;;;5027699;28;20439;-56
2022/02/18 11:04:09;;;;;;;3.83;1.23;;;10.50;97.60;;;;;;5028171;28;20052;-56
2022/02/18 11:06:37;;;;;;;3.38;0.90;;;10.50;97.60;;;;;;5038477;28;20123;-56
2022/02/18 11:09:14;;;;;;;4.38;1.08;;;10.50;97.70;;;;;;5030522;28;20048;-55
2022/02/18 11:11:45;;;;;;;0.63;0.63;;;10.50;98.00;;;;;;5034031;28;20156;-56
2022/02/18 11:14:16;;;;;;;3.15;0.90;;;10.60;98.00;;;;;;5039910;28;20049;-56
2022/02/18 11:16:42;;;;;;;;;;;10.50;97.70;;;;;;5028562;28;20030;-55
2022/02/18 11:19:08;;;;;;;2.70;0.82;;;10.60;97.80;;;;;;5035930;28;19994;-55
2022/02/18 11:21:34;;;;;;;0.30;0.30;;;10.60;97.70;;;;;;5035894;28;20439;-56
2022/02/18 11:24:02;;;;;;;2.22;1.10;;;10.60;98.00;;;;;;5029410;28;20246;-56
2022/02/18 11:26:30;;;;;;;7.18;1.20;;;10.60;98.30;;;;;;5030684;28;20033;-56
2022/02/18 11:28:56;;;;;;;1.42;0.80;;;10.70;98.60;;;;;;5037650;28;20090;-56
2022/02/18 11:31:36;;;;;;;3.17;1.92;;;10.80;98.30;;;;;;5034489;28;20080;-56
2022/02/18 11:34:39;;;;;;;0.47;0.47;;;10.80;98.60;;;;;;5036976;28;20037;-56
2022/02/18 11:37:21;;;;;;;0.98;0.80;;;10.80;98.20;;;;;;5032119;28;20029;-56
2022/02/18 11:40:06;;;;;;;1.35;0.93;;;10.80;98.40;;;;;;5037677;28;20026;-55
2022/02/18 11:43:07;;;;;;;7.55;1.02;;;10.80;98.90;;;;;;5034736;28;20451;-56
2022/02/18 11:45:33;;;;;;;0.40;0.40;;;10.80;98.60;;;;;;5031939;28;20033;-56
2022/02/18 11:47:59;;;;;;;2.65;0.63;;;10.90;98.70;;;;;;5032849;28;20056;-56
2022/02/18 11:50:32;;;;;;;2.35;0.80;;;10.90;98.80;;;;;;5038546;28;20083;-56
2022/02/18 11:52:58;;;;;;;2.88;0.98;;;11.00;98.80;;;;;;5039383;28;20116;-56
2022/02/18 11:55:28;;;;;;;2.13;1.20;;;11.00;98.40;;;;;;5034974;28;20025;-56
2022/02/18 11:58:18;;;;;;;0.95;0.52;;;11.00;98.60;;;;;;5039477;28;20047;-56
2022/02/18 12:00:50;;;;;;;1.23;0.70;;;11.00;98.50;;;;;;5025274;28;20026;-56
2022/02/18 12:03:17;;;;;;;0.65;0.65;;;10.90;99.30;;;;;;5036616;28;20422;-56
2022/02/18 12:06:04;;;;;;;2.83;0.60;;;11.00;99.20;;;;;;5038422;28;20458;-56
2022/02/18 12:08:32;;;;;;;2.08;0.90;;;11.00;98.90;;;;;;5040771;28;20029;-56
2022/02/18 12:10:57;;;;;;;5.38;0.75;;;11.00;99.30;;;;;;5040121;28;20036;-56
2022/02/18 12:13:23;;;;;;;2.97;0.77;;;11.00;99.20;;;;;;5037744;28;20021;-56
2022/02/18 12:15:49;;;;;;;2.28;1.02;;;11.10;98.60;;;;;;5031051;28;20459;-56
2022/02/18 12:18:24;;;;;;;0.63;0.63;;;11.10;99.30;;;;;;5036918;28;20439;-56
2022/02/18 12:21:08;;;;;;;0.43;0.43;;;11.10;98.70;;;;;;5033700;28;20120;-56
2022/02/18 12:23:41;;;;;;;0.28;0.28;;;11.20;98.70;;;;;;5035612;28;20036;-56
2022/02/18 12:26:19;;;;;;;2.78;0.82;;;11.20;98.80;;;;;;5034212;28;20025;-56
2022/02/18 12:28:46;;;;;;;1.33;0.95;;;11.30;98.20;;;;;;5039075;28;20101;-56
2022/02/18 12:31:12;;;;;;;0.40;0.40;;;11.20;99.00;;;;;;5028923;28;20229;-56
2022/02/18 12:33:39;;;;;;;5.35;1.02;;;11.20;98.10;;;;;;5040094;28;20550;-56
2022/02/18 12:36:14;;;;;;;0.47;0.47;;;11.20;98.70;;;;;;5036326;28;20032;-56
2022/02/18 12:38:48;;;;;;;1.63;0.60;;;11.20;98.10;;;;;;5041203;28;20037;-56
2022/02/18 12:41:14;;;;;;;0.40;0.40;;;11.20;98.90;;;;;;5034587;28;20017;-56